Time;durP1;ratioP1;P1;durP2;ratioP2;P2;SDS_P1;SDS_P2;PMS_P1;PMS_P2;Temp;Humidity;BMP_temperature;BMP_pressure;BME280_temperature;BME280_humidity;BME280_pressure;Samples;Min_cycle;Max_cycle;Signal;HPM_P1;HPM_P2
2022/03/14 00:00:47;;;;;;;6.65;4.63;;;8.90;96.60;;;;;;4968526;28;20071;-75
2022/03/14 00:03:14;;;;;;;7.45;4.82;;;8.90;97.30;;;;;;4936835;29;20050;-75
2022/03/14 00:05:40;;;;;;;6.03;4.68;;;8.90;98.00;;;;;;4937601;29;20114;-75
2022/03/14 00:08:07;;;;;;;6.32;4.88;;;8.80;98.60;;;;;;4937199;29;20067;-75
2022/03/14 00:10:36;;;;;;;6.82;4.93;;;8.90;99.10;;;;;;4937148;29;20488;-75
2022/03/14 00:13:03;;;;;;;6.30;4.32;;;8.90;99.60;;;;;;4953464;28;20047;-75
2022/03/14 00:15:33;;;;;;;7.00;4.88;;;9.00;99.90;;;;;;4954286;28;20050;-75
2022/03/14 00:18:01;;;;;;;5.70;4.45;;;9.10;99.90;;;;;;4937029;29;20047;-75
2022/03/14 00:20:27;;;;;;;5.35;4.13;;;9.20;99.90;;;;;;4936452;29;20522;-75
2022/03/14 00:22:53;;;;;;;5.55;4.30;;;9.30;99.90;;;;;;4935643;29;20074;-75
2022/03/14 00:25:19;;;;;;;4.72;3.65;;;9.40;99.90;;;;;;4936418;29;20472;-75
2022/03/14 00:27:45;;;;;;;5.22;4.00;;;9.40;99.90;;;;;;4937021;29;20039;-75
2022/03/14 00:30:12;;;;;;;5.53;3.88;;;9.50;99.90;;;;;;4952710;28;20399;-75
2022/03/14 00:32:38;;;;;;;4.85;3.95;;;9.50;99.90;;;;;;4936931;29;20577;-75
2022/03/14 00:35:07;;;;;;;5.22;4.10;;;9.50;99.90;;;;;;4937558;29;20063;-75
2022/03/14 00:37:33;;;;;;;5.43;4.15;;;9.60;99.90;;;;;;4954071;28;20075;-75
2022/03/14 00:39:59;;;;;;;5.88;4.20;;;9.60;99.90;;;;;;4953969;28;20413;-75
2022/03/14 00:42:25;;;;;;;5.65;4.07;;;9.60;99.90;;;;;;4936948;28;20047;-75
2022/03/14 00:44:51;;;;;;;5.65;4.55;;;9.60;99.90;;;;;;4936305;29;20409;-75
2022/03/14 00:47:18;;;;;;;5.95;4.32;;;9.60;99.90;;;;;;4936705;29;20126;-75
2022/03/14 00:49:45;;;;;;;6.80;4.65;;;9.70;99.90;;;;;;4936816;29;20043;-75
2022/03/14 00:52:11;;;;;;;5.38;4.10;;;9.70;99.90;;;;;;4936940;29;20041;-75
2022/03/14 00:54:37;;;;;;;5.28;4.63;;;9.70;99.90;;;;;;4936201;29;20043;-75
2022/03/14 00:57:03;;;;;;;6.15;4.50;;;9.70;99.90;;;;;;4936411;28;20090;-75
2022/03/14 00:59:29;;;;;;;6.22;4.57;;;9.70;99.90;;;;;;4937475;29;20043;-75
2022/03/14 01:01:56;;;;;;;4.88;3.75;;;9.70;99.90;;;;;;4941175;29;20459;-75
2022/03/14 01:04:22;;;;;;;5.20;4.03;;;9.70;99.90;;;;;;4940298;29;20110;-75
2022/03/14 01:06:48;;;;;;;6.13;4.25;;;9.60;99.90;;;;;;4940740;29;20442;-75
2022/03/14 01:09:14;;;;;;;5.40;4.32;;;9.60;99.90;;;;;;4940971;29;20058;-75
2022/03/14 01:11:43;;;;;;;5.30;3.97;;;9.50;99.90;;;;;;4955817;28;20058;-75
2022/03/14 01:14:10;;;;;;;5.75;4.30;;;9.50;99.90;;;;;;4956415;28;20043;-75
2022/03/14 01:16:37;;;;;;;6.07;4.10;;;9.50;99.90;;;;;;4940556;29;20419;-75
2022/03/14 01:19:03;;;;;;;5.13;4.07;;;9.50;99.90;;;;;;4940312;29;20334;-75
2022/03/14 01:21:29;;;;;;;5.43;4.25;;;9.50;99.90;;;;;;4956227;28;20526;-75
2022/03/14 01:23:56;;;;;;;6.88;4.28;;;9.50;99.90;;;;;;4940118;29;20039;-75
2022/03/14 01:26:22;;;;;;;6.38;4.32;;;9.50;99.90;;;;;;4955823;28;20039;-75
2022/03/14 01:28:48;;;;;;;7.30;5.53;;;9.50;99.90;;;;;;4956022;28;20113;-75
2022/03/14 01:31:14;;;;;;;4.95;4.35;;;9.40;99.90;;;;;;4955902;28;20050;-75
2022/03/14 01:33:40;;;;;;;6.75;5.05;;;9.40;99.90;;;;;;4939936;29;20186;-75
2022/03/14 01:36:06;;;;;;;6.05;4.55;;;9.40;99.90;;;;;;4955849;28;20122;-75
2022/03/14 01:38:32;;;;;;;6.22;4.10;;;9.30;99.90;;;;;;4956105;28;20054;-75
2022/03/14 01:41:00;;;;;;;5.47;4.53;;;9.30;99.90;;;;;;4940168;28;20039;-75
2022/03/14 01:43:26;;;;;;;6.93;5.25;;;9.30;99.90;;;;;;4955305;28;20039;-75
2022/03/14 01:45:58;;;;;;;5.95;4.30;;;9.30;99.90;;;;;;4940071;29;20039;-75
2022/03/14 01:48:25;;;;;;;6.30;4.05;;;9.30;99.90;;;;;;4939871;29;20046;-75
2022/03/14 01:50:51;;;;;;;5.13;4.03;;;9.30;99.90;;;;;;4940154;29;20118;-75
2022/03/14 01:53:21;;;;;;;4.80;3.72;;;9.30;99.90;;;;;;4939207;28;20536;-75
2022/03/14 01:55:50;;;;;;;5.30;4.20;;;9.30;99.90;;;;;;4939393;29;20162;-75
2022/03/14 01:58:16;;;;;;;5.22;3.90;;;9.30;99.90;;;;;;4939732;29;20047;-75
2022/03/14 02:00:45;;;;;;;5.38;4.07;;;9.30;99.90;;;;;;4955222;28;20047;-75
2022/03/14 02:03:11;;;;;;;5.45;4.20;;;9.30;99.90;;;;;;4939269;29;20039;-75
2022/03/14 02:05:37;;;;;;;5.22;4.03;;;9.30;99.90;;;;;;4955103;28;20049;-75
2022/03/14 02:08:07;;;;;;;6.22;4.32;;;9.30;99.90;;;;;;4939143;29;20047;-75
2022/03/14 02:10:34;;;;;;;6.35;4.55;;;9.30;99.90;;;;;;4939558;29;20451;-75
2022/03/14 02:13:07;;;;;;;5.55;4.05;;;9.30;99.90;;;;;;4939180;29;20047;-75
2022/03/14 02:15:35;;;;;;;7.93;4.20;;;9.30;99.90;;;;;;4939248;29;20043;-75
2022/03/14 02:18:02;;;;;;;5.25;4.10;;;9.30;99.90;;;;;;4939288;29;20047;-75
2022/03/14 02:20:28;;;;;;;5.25;3.72;;;9.20;99.90;;;;;;4939135;28;20525;-75
2022/03/14 02:22:54;;;;;;;5.10;3.75;;;9.20;99.90;;;;;;4939278;29;20441;-75
2022/03/14 02:25:19;;;;;;;4.65;3.75;;;9.30;99.90;;;;;;4939440;29;20039;-75
2022/03/14 02:27:45;;;;;;;5.03;3.90;;;9.30;99.90;;;;;;4955001;29;20410;-74
2022/03/14 02:30:11;;;;;;;5.03;3.92;;;9.30;99.90;;;;;;4939200;29;20521;-74
2022/03/14 02:32:41;;;;;;;5.82;3.90;;;9.40;99.90;;;;;;4955058;28;20054;-74
2022/03/14 02:35:10;;;;;;;5.95;4.25;;;9.30;99.90;;;;;;4954576;28;20549;-75
2022/03/14 02:37:38;;;;;;;4.43;3.53;;;9.30;99.90;;;;;;4938918;29;20054;-74
2022/03/14 02:40:05;;;;;;;5.65;3.70;;;9.40;99.90;;;;;;4954517;28;20039;-74
2022/03/14 02:42:31;;;;;;;4.53;3.40;;;9.40;99.90;;;;;;4939064;29;20039;-74
2022/03/14 02:44:57;;;;;;;4.90;3.35;;;9.30;99.90;;;;;;4938850;29;20398;-74
2022/03/14 02:47:23;;;;;;;4.22;3.10;;;9.40;99.90;;;;;;4938359;28;20039;-74
2022/03/14 02:49:49;;;;;;;4.78;3.47;;;9.50;99.90;;;;;;4955054;28;20057;-74
2022/03/14 02:52:15;;;;;;;3.88;3.00;;;9.40;99.90;;;;;;4938999;29;20035;-74
2022/03/14 02:54:43;;;;;;;4.03;3.00;;;9.40;99.90;;;;;;4938964;29;20039;-74
2022/03/14 02:57:09;;;;;;;4.05;3.08;;;9.50;99.90;;;;;;4954123;28;20062;-74
2022/03/14 02:59:35;;;;;;;3.92;3.10;;;9.50;99.90;;;;;;4938226;29;20545;-74
2022/03/14 03:02:00;;;;;;;3.92;3.05;;;9.50;99.90;;;;;;4934707;29;20043;-74
2022/03/14 03:04:26;;;;;;;4.35;3.25;;;9.50;99.90;;;;;;4953588;28;20044;-74
2022/03/14 03:06:54;;;;;;;4.28;3.42;;;9.50;99.90;;;;;;4938334;29;20043;-74
2022/03/14 03:09:20;;;;;;;4.55;3.38;;;9.50;99.90;;;;;;4937977;29;20089;-74
2022/03/14 03:11:46;;;;;;;3.75;2.97;;;9.50;99.90;;;;;;4953847;28;20047;-74
2022/03/14 03:14:12;;;;;;;4.22;3.10;;;9.60;99.90;;;;;;4937769;29;20046;-74
2022/03/14 03:16:38;;;;;;;3.78;2.97;;;9.50;99.90;;;;;;4937736;29;20035;-74
2022/03/14 03:19:06;;;;;;;4.10;3.20;;;9.40;99.90;;;;;;4938145;29;20054;-74
2022/03/14 03:21:34;;;;;;;4.22;3.42;;;9.50;99.90;;;;;;4938646;28;20495;-75
2022/03/14 03:24:01;;;;;;;4.15;3.60;;;9.40;99.90;;;;;;4953794;29;20413;-75
2022/03/14 03:26:26;;;;;;;4.70;3.78;;;9.50;99.90;;;;;;4937637;29;20035;-75
2022/03/14 03:28:52;;;;;;;4.07;3.42;;;9.40;99.90;;;;;;4937703;29;20478;-75
2022/03/14 03:31:19;;;;;;;4.32;3.42;;;9.40;99.90;;;;;;4937798;28;20078;-75
2022/03/14 03:33:46;;;;;;;5.03;3.90;;;9.30;99.90;;;;;;4937989;29;20129;-74
2022/03/14 03:36:12;;;;;;;4.60;3.67;;;9.30;99.90;;;;;;4937685;29;20051;-74
2022/03/14 03:38:37;;;;;;;5.20;3.60;;;9.30;99.90;;;;;;4937988;29;20130;-74
2022/03/14 03:41:03;;;;;;;5.13;3.78;;;9.20;99.90;;;;;;4953750;29;20070;-74
2022/03/14 03:43:29;;;;;;;5.97;4.43;;;9.20;99.90;;;;;;4954824;28;20491;-74
2022/03/14 03:45:55;;;;;;;4.53;3.95;;;9.20;99.90;;;;;;4953078;28;20043;-74
2022/03/14 03:48:21;;;;;;;5.82;3.97;;;9.10;99.90;;;;;;4951855;28;20059;-74
2022/03/14 03:50:47;;;;;;;4.65;3.65;;;9.00;99.90;;;;;;4937817;29;20050;-74
2022/03/14 03:53:13;;;;;;;5.68;3.83;;;8.90;99.90;;;;;;4937251;28;20047;-74
2022/03/14 03:55:39;;;;;;;6.07;4.28;;;8.90;99.90;;;;;;4953030;29;20062;-74
2022/03/14 03:58:05;;;;;;;5.18;3.88;;;8.80;99.90;;;;;;4937273;29;20086;-74
2022/03/14 04:00:30;;;;;;;5.50;3.97;;;8.80;99.90;;;;;;4937412;28;20542;-74
2022/03/14 04:02:56;;;;;;;5.88;3.92;;;8.80;99.90;;;;;;4953410;29;20474;-74
2022/03/14 04:05:23;;;;;;;5.30;3.70;;;8.80;99.90;;;;;;4937114;29;20043;-74
2022/03/14 04:07:49;;;;;;;4.53;3.53;;;8.80;99.90;;;;;;4937139;29;20522;-74
2022/03/14 04:10:15;;;;;;;5.13;3.60;;;8.70;99.90;;;;;;4953253;28;20035;-74
2022/03/14 04:12:44;;;;;;;4.15;3.35;;;8.70;99.90;;;;;;4952813;28;20066;-74
2022/03/14 04:15:10;;;;;;;4.68;3.28;;;8.80;99.90;;;;;;4952748;28;20050;-74
2022/03/14 04:17:41;;;;;;;4.40;3.38;;;8.70;99.90;;;;;;4936745;29;20039;-74
2022/03/14 04:20:08;;;;;;;4.97;4.00;;;8.80;99.90;;;;;;4952690;28;20410;-74
2022/03/14 04:22:39;;;;;;;4.38;3.35;;;8.80;99.90;;;;;;4937121;29;20039;-74
2022/03/14 04:25:06;;;;;;;5.13;3.92;;;8.80;99.90;;;;;;4952405;28;20098;-74
2022/03/14 04:27:32;;;;;;;4.30;3.42;;;8.80;99.90;;;;;;4937008;28;20039;-74
2022/03/14 04:29:58;;;;;;;5.28;3.65;;;8.80;99.90;;;;;;4937124;29;20046;-74
2022/03/14 04:32:24;;;;;;;4.38;3.50;;;8.80;99.90;;;;;;4936649;29;20512;-74
2022/03/14 04:34:50;;;;;;;5.35;3.25;;;8.80;99.90;;;;;;4935516;29;20070;-74
2022/03/14 04:37:16;;;;;;;4.00;3.08;;;8.80;99.90;;;;;;4936716;29;20078;-74
2022/03/14 04:39:42;;;;;;;5.72;3.22;;;8.80;99.90;;;;;;4936533;29;20086;-74
2022/03/14 04:42:09;;;;;;;4.00;3.25;;;8.80;99.90;;;;;;4952574;28;20273;-74
2022/03/14 04:44:35;;;;;;;3.90;3.13;;;8.70;99.90;;;;;;4952462;28;20058;-74
2022/03/14 04:47:02;;;;;;;4.82;3.22;;;8.80;99.90;;;;;;4948199;28;20051;-74
2022/03/14 04:49:28;;;;;;;4.40;3.30;;;8.80;99.90;;;;;;4952293;28;20126;-74
2022/03/14 04:51:55;;;;;;;3.90;3.15;;;8.70;99.90;;;;;;4952885;29;20046;-74
2022/03/14 04:54:23;;;;;;;4.32;3.05;;;8.80;99.90;;;;;;4952311;28;20066;-74
2022/03/14 04:56:49;;;;;;;4.20;3.13;;;8.80;99.90;;;;;;4952561;29;20044;-74
2022/03/14 04:59:15;;;;;;;4.38;3.35;;;8.80;99.90;;;;;;4953431;28;20035;-74
2022/03/14 05:01:41;;;;;;;4.43;3.30;;;8.80;99.90;;;;;;4951819;28;20406;-74
2022/03/14 05:04:07;;;;;;;4.05;3.25;;;8.80;99.90;;;;;;4936240;29;20051;-74
2022/03/14 05:06:33;;;;;;;4.82;3.22;;;8.80;99.90;;;;;;4936471;29;20039;-74
2022/03/14 05:08:59;;;;;;;5.00;3.88;;;8.80;99.90;;;;;;4936289;29;20486;-74
2022/03/14 05:11:25;;;;;;;4.75;3.65;;;8.80;99.90;;;;;;4933140;29;20418;-74
2022/03/14 05:13:51;;;;;;;4.97;3.33;;;8.80;99.90;;;;;;4934585;29;20138;-74
2022/03/14 05:16:19;;;;;;;5.25;3.85;;;8.90;99.90;;;;;;4936248;29;20134;-74
2022/03/14 05:18:45;;;;;;;4.82;3.75;;;8.80;99.90;;;;;;4936005;29;20542;-74
2022/03/14 05:21:11;;;;;;;4.85;3.78;;;8.80;99.90;;;;;;4936421;29;20107;-75
2022/03/14 05:23:37;;;;;;;6.65;4.07;;;8.80;99.90;;;;;;4936402;29;20128;-75
2022/03/14 05:26:03;;;;;;;5.22;4.10;;;8.80;99.90;;;;;;4935486;28;20039;-75
2022/03/14 05:28:28;;;;;;;6.00;4.00;;;8.80;99.90;;;;;;4936583;29;20497;-75
2022/03/14 05:30:54;;;;;;;5.93;3.85;;;8.80;99.90;;;;;;4952270;28;20120;-75
2022/03/14 05:33:20;;;;;;;4.60;3.80;;;8.80;99.90;;;;;;4951917;28;20054;-75
2022/03/14 05:35:46;;;;;;;5.22;4.25;;;8.80;99.90;;;;;;4936064;29;20047;-74
2022/03/14 05:38:12;;;;;;;4.53;3.90;;;8.70;99.90;;;;;;4936154;29;20048;-75
2022/03/14 05:40:38;;;;;;;5.35;4.30;;;8.70;99.90;;;;;;4936163;28;20126;-75
2022/03/14 05:43:09;;;;;;;5.72;4.53;;;8.70;99.90;;;;;;4936939;29;20057;-75
2022/03/14 05:45:35;;;;;;;5.55;4.55;;;8.70;99.90;;;;;;4954085;28;20098;-75
2022/03/14 05:48:01;;;;;;;5.82;4.68;;;8.70;99.90;;;;;;4954975;28;20520;-75
2022/03/14 05:50:27;;;;;;;6.68;4.57;;;8.70;99.90;;;;;;4955885;28;20043;-75
2022/03/14 05:52:53;;;;;;;5.88;4.53;;;8.60;99.90;;;;;;4939128;28;20081;-75
2022/03/14 05:55:19;;;;;;;5.78;4.70;;;8.60;99.90;;;;;;4954994;28;20109;-75
2022/03/14 05:57:45;;;;;;;7.65;5.07;;;8.60;99.90;;;;;;4939433;29;20043;-75
2022/03/14 06:00:12;;;;;;;6.53;4.93;;;8.60;99.90;;;;;;4938989;29;20122;-75
2022/03/14 06:02:39;;;;;;;6.22;4.60;;;8.50;99.90;;;;;;4939018;29;20035;-75
2022/03/14 06:05:05;;;;;;;6.35;5.07;;;8.60;99.90;;;;;;4938932;29;20101;-75
2022/03/14 06:07:31;;;;;;;6.28;4.93;;;8.60;99.90;;;;;;4956169;28;20055;-75
2022/03/14 06:09:58;;;;;;;6.68;5.28;;;8.60;99.90;;;;;;4939428;29;20091;-75
2022/03/14 06:12:29;;;;;;;6.88;5.40;;;8.50;99.90;;;;;;4954903;29;20043;-75
2022/03/14 06:15:10;;;;;;;6.40;5.18;;;8.60;99.90;;;;;;4954605;28;20043;-75
2022/03/14 06:17:51;;;;;;;6.32;4.82;;;8.60;99.90;;;;;;4941359;29;20067;-76
2022/03/14 06:20:32;;;;;;;6.60;5.50;;;8.60;99.90;;;;;;4939042;28;20051;-77
2022/03/14 06:23:19;;;;;;;;;;;8.50;99.90;;;;;;4958610;28;20046;-79
2022/03/14 06:25:54;;;;;;;6.63;5.28;;;8.60;99.90;;;;;;4950571;29;19918;-76
2022/03/14 06:28:23;;;;;;;6.45;5.25;;;8.60;99.90;;;;;;4941223;28;20043;-76
2022/03/14 06:30:49;;;;;;;7.25;5.55;;;8.70;99.90;;;;;;4955439;28;20517;-76
2022/03/14 06:33:15;;;;;;;6.75;5.60;;;8.60;99.90;;;;;;4938639;29;20043;-76
2022/03/14 06:35:43;;;;;;;6.30;5.32;;;8.70;99.90;;;;;;4938713;29;20050;-75
2022/03/14 06:38:10;;;;;;;6.50;5.60;;;8.70;99.90;;;;;;4938156;29;20044;-76
2022/03/14 06:40:42;;;;;;;7.38;5.75;;;8.70;99.90;;;;;;4953723;28;20050;-76
2022/03/14 06:43:22;;;;;;;7.57;5.80;;;8.70;99.90;;;;;;4938284;28;20066;-76
2022/03/14 06:46:02;;;;;;;8.07;5.72;;;8.70;99.90;;;;;;4938436;29;20804;-76
2022/03/14 06:48:39;;;;;;;7.97;5.68;;;8.70;99.90;;;;;;4954354;28;20042;-76
2022/03/14 06:51:21;;;;;;;6.85;5.80;;;8.80;99.90;;;;;;4939052;29;20129;-76
2022/03/14 06:56:55;;;;;;;7.25;5.90;;;8.70;99.90;;;;;;4953233;28;20075;-75
2022/03/14 06:59:30;;;;;;;6.97;5.57;;;8.80;99.90;;;;;;4936981;29;20051;-75
2022/03/14 07:02:00;;;;;;;10.07;5.72;;;8.80;99.90;;;;;;4937581;28;20082;-76
2022/03/14 07:04:28;;;;;;;7.43;6.00;;;8.80;99.90;;;;;;4938282;29;20560;-77
2022/03/14 07:07:10;;;;;;;6.88;5.90;;;8.80;99.90;;;;;;4938751;29;20521;-77
2022/03/14 07:10:02;;;;;;;7.68;6.40;;;8.80;99.90;;;;;;4948663;28;20561;-78
2022/03/14 07:12:28;;;;;;;7.45;5.95;;;8.80;99.90;;;;;;4936232;29;20075;-75
2022/03/14 07:14:54;;;;;;;8.10;5.97;;;8.90;99.90;;;;;;4953845;29;20042;-76
2022/03/14 07:17:42;;;;;;;7.53;6.53;;;8.90;99.90;;;;;;4936996;28;20043;-76
2022/03/14 07:20:25;;;;;;;8.15;6.22;;;8.90;99.90;;;;;;4939380;29;20126;-78
2022/03/14 07:22:58;;;;;;;7.60;6.03;;;8.90;99.90;;;;;;4937352;29;20118;-75
2022/03/14 07:25:24;;;;;;;7.50;6.20;;;9.00;99.90;;;;;;4954106;29;20110;-75
2022/03/14 07:27:55;;;;;;;7.40;6.55;;;8.90;99.90;;;;;;4937167;29;20524;-75
2022/03/14 07:30:23;;;;;;;7.80;6.75;;;9.00;99.90;;;;;;4936385;29;20527;-76
2022/03/14 07:33:06;;;;;;;7.95;6.78;;;9.00;99.90;;;;;;4937660;28;20130;-76
2022/03/14 07:35:32;;;;;;;8.88;6.38;;;9.00;99.90;;;;;;4937482;29;20051;-76
2022/03/14 07:37:58;;;;;;;8.98;6.63;;;9.10;99.90;;;;;;4937474;29;20568;-76
2022/03/14 07:40:28;;;;;;;9.23;6.75;;;9.10;99.90;;;;;;4921729;29;20302;-76
2022/03/14 07:43:11;;;;;;;7.70;6.47;;;9.10;99.90;;;;;;4953416;28;20387;-76
2022/03/14 07:45:45;;;;;;;8.10;6.95;;;9.20;99.90;;;;;;4938414;28;20039;-78
2022/03/14 07:48:24;;;;;;;7.60;6.50;;;9.20;99.90;;;;;;4938036;29;20413;-78
2022/03/14 07:50:59;;;;;;;8.70;6.80;;;9.20;99.90;;;;;;4938752;29;20043;-78
2022/03/14 07:53:45;;;;;;;8.77;7.00;;;9.30;99.90;;;;;;4953458;28;20142;-78
2022/03/14 07:56:25;;;;;;;8.65;7.25;;;9.20;99.90;;;;;;4923548;28;20043;-77
2022/03/14 07:58:56;;;;;;;10.70;8.43;;;9.20;99.90;;;;;;4921485;29;20121;-77
2022/03/14 08:01:41;;;;;;;11.13;9.77;;;9.30;99.90;;;;;;4937846;29;20457;-77
2022/03/14 08:04:17;;;;;;;13.65;10.32;;;9.20;99.90;;;;;;4921468;28;20185;-78
2022/03/14 08:06:43;;;;;;;14.20;10.98;;;9.20;99.90;;;;;;4937825;29;20561;-78
2022/03/14 08:09:12;;;;;;;14.50;11.48;;;9.10;99.90;;;;;;4937288;29;20058;-78
2022/03/14 08:11:39;;;;;;;16.50;12.55;;;9.10;99.90;;;;;;4937283;29;20047;-78
2022/03/14 08:14:12;;;;;;;15.77;12.75;;;9.00;99.90;;;;;;4937281;29;20050;-78
2022/03/14 08:16:38;;;;;;;;;;;8.90;99.90;;;;;;4937333;28;20039;-78
2022/03/14 08:19:06;;;;;;;16.05;12.93;;;9.00;99.90;;;;;;4937182;28;20471;-78
2022/03/14 08:21:33;;;;;;;18.45;14.65;;;9.00;99.90;;;;;;4937365;29;20050;-78
2022/03/14 08:24:01;;;;;;;17.63;14.05;;;9.00;99.90;;;;;;4936771;29;20050;-78
2022/03/14 08:26:36;;;;;;;19.70;14.82;;;8.90;99.90;;;;;;4936913;29;20126;-78
2022/03/14 08:29:07;;;;;;;18.48;14.50;;;9.00;99.90;;;;;;4938747;28;20387;-78
2022/03/14 08:31:33;;;;;;;19.80;15.45;;;9.00;99.90;;;;;;4936691;29;20054;-78
2022/03/14 08:34:02;;;;;;;17.45;14.10;;;8.90;99.90;;;;;;4937490;29;20573;-78
2022/03/14 08:36:31;;;;;;;19.65;13.77;;;8.90;99.90;;;;;;4936799;29;20047;-78
2022/03/14 08:39:09;;;;;;;19.02;14.45;;;8.80;99.90;;;;;;4937655;29;20498;-78
2022/03/14 08:41:36;;;;;;;19.50;13.00;;;8.70;99.90;;;;;;4937497;29;20060;-78
2022/03/14 08:44:15;;;;;;;19.15;13.60;;;8.70;99.90;;;;;;4937342;29;20121;-78
2022/03/14 08:46:44;;;;;;;20.90;13.70;;;8.60;99.90;;;;;;4937555;29;20047;-78
2022/03/14 08:49:28;;;;;;;19.98;13.10;;;8.50;99.90;;;;;;4938992;29;20035;-78
2022/03/14 08:52:04;;;;;;;21.52;14.10;;;8.40;99.90;;;;;;4937922;29;20402;-77
2022/03/14 08:54:29;;;;;;;19.85;14.18;;;8.50;99.90;;;;;;4937976;29;20046;-78
2022/03/14 08:56:57;;;;;;;18.60;14.52;;;8.40;99.90;;;;;;4938366;29;20047;-78
2022/03/14 08:59:26;;;;;;;21.67;15.05;;;8.30;99.90;;;;;;4939204;29;20134;-79
2022/03/14 09:01:58;;;;;;;21.30;14.90;;;8.40;99.90;;;;;;4956517;28;20066;-78
2022/03/14 09:04:32;;;;;;;21.67;14.20;;;8.40;99.90;;;;;;4938249;29;20491;-78
2022/03/14 09:07:16;;;;;;;21.38;13.95;;;8.40;99.90;;;;;;4938798;29;20039;-78
2022/03/14 09:09:54;;;;;;;21.17;13.52;;;8.40;99.90;;;;;;4938771;29;20535;-78
2022/03/14 09:12:23;;;;;;;19.10;13.63;;;8.40;99.90;;;;;;4953246;28;20526;-78
2022/03/14 09:14:55;;;;;;;18.95;13.30;;;8.50;99.90;;;;;;4936865;29;20062;-78
2022/03/14 09:17:28;;;;;;;17.95;11.55;;;8.50;99.90;;;;;;4952725;28;20062;-78
2022/03/14 09:20:01;;;;;;;18.83;11.98;;;8.50;99.90;;;;;;4937832;29;20043;-78
2022/03/14 09:22:28;;;;;;;20.05;10.20;;;8.50;99.90;;;;;;4941012;29;20049;-76
2022/03/14 09:24:59;;;;;;;17.10;9.63;;;8.60;99.90;;;;;;4956517;28;20035;-76
2022/03/14 09:27:25;;;;;;;15.88;8.48;;;8.60;99.90;;;;;;4940047;29;20094;-76
2022/03/14 09:29:54;;;;;;;14.75;8.35;;;8.60;99.90;;;;;;4940929;28;20046;-76
2022/03/14 09:32:22;;;;;;;11.98;7.53;;;8.70;99.90;;;;;;4940492;29;20043;-76
2022/03/14 09:34:48;;;;;;;13.18;7.68;;;8.70;99.90;;;;;;4955887;28;20043;-76
2022/03/14 09:37:20;;;;;;;13.15;7.47;;;8.70;99.90;;;;;;4940148;29;20490;-76
2022/03/14 09:39:46;;;;;;;11.53;6.57;;;8.70;99.90;;;;;;4940202;29;20467;-76
2022/03/14 09:42:21;;;;;;;14.07;7.05;;;8.70;99.90;;;;;;4940124;28;20279;-76
2022/03/14 09:44:57;;;;;;;12.20;6.25;;;8.80;99.90;;;;;;4955768;28;20058;-76
2022/03/14 09:47:28;;;;;;;11.32;5.93;;;8.90;99.90;;;;;;4939932;29;20414;-76
2022/03/14 09:49:59;;;;;;;10.93;5.68;;;8.90;99.90;;;;;;4939856;29;20055;-76
2022/03/14 09:52:37;;;;;;;10.45;4.88;;;9.00;99.90;;;;;;4939552;29;20569;-76
2022/03/14 09:55:09;;;;;;;12.45;4.93;;;9.00;99.90;;;;;;4939855;29;20394;-76
2022/03/14 09:57:39;;;;;;;8.10;4.45;;;9.10;99.90;;;;;;4940035;29;20094;-76
2022/03/14 10:00:17;;;;;;;9.20;4.30;;;9.10;99.90;;;;;;4955334;28;20051;-76
2022/03/14 10:02:48;;;;;;;7.72;4.03;;;9.20;99.90;;;;;;4939465;29;20039;-76
2022/03/14 10:05:19;;;;;;;8.82;3.97;;;9.20;99.90;;;;;;4939614;28;20047;-76
2022/03/14 10:07:50;;;;;;;10.73;3.40;;;9.10;99.90;;;;;;4939562;29;20058;-76
2022/03/14 10:10:19;;;;;;;7.65;3.80;;;9.10;99.90;;;;;;4939812;29;20054;-76
2022/03/14 10:12:57;;;;;;;9.93;3.75;;;9.20;99.90;;;;;;4939219;29;20046;-76
2022/03/14 10:15:32;;;;;;;8.43;4.35;;;9.30;99.90;;;;;;4941232;28;20445;-76
2022/03/14 10:18:17;;;;;;;6.85;3.72;;;9.40;99.90;;;;;;4924455;29;20039;-76
2022/03/14 10:21:12;;;;;;;9.50;4.35;;;9.50;99.90;;;;;;4955150;28;20047;-76
2022/03/14 10:23:50;;;;;;;11.38;4.65;;;9.60;99.90;;;;;;4939743;28;20036;-76
2022/03/14 10:26:27;;;;;;;10.30;3.97;;;9.60;99.90;;;;;;4939459;29;20045;-76
2022/03/14 10:28:57;;;;;;;12.00;4.38;;;9.70;99.90;;;;;;4924531;29;20050;-76
2022/03/14 10:31:54;;;;;;;10.63;3.83;;;9.70;99.90;;;;;;4954523;28;20043;-76
2022/03/14 10:34:21;;;;;;;8.80;3.60;;;9.80;99.90;;;;;;4938705;28;20050;-76
2022/03/14 10:36:57;;;;;;;11.50;4.10;;;9.80;99.90;;;;;;4940147;29;20043;-76
2022/03/14 10:39:39;;;;;;;8.45;3.50;;;9.90;99.90;;;;;;4939002;29;20047;-76
2022/03/14 10:42:11;;;;;;;8.68;3.40;;;10.10;99.90;;;;;;4938893;29;20043;-76
2022/03/14 10:44:44;;;;;;;10.25;3.85;;;10.10;99.90;;;;;;4938007;28;20396;-76
2022/03/14 10:47:15;;;;;;;11.25;4.18;;;10.30;99.90;;;;;;4954584;28;20474;-76
2022/03/14 10:49:48;;;;;;;8.88;3.28;;;10.30;99.90;;;;;;4954904;28;20048;-76
2022/03/14 10:52:21;;;;;;;7.28;3.58;;;10.40;99.90;;;;;;4954768;28;20122;-76
2022/03/14 10:54:53;;;;;;;;;;;10.50;99.90;;;;;;4938506;29;20052;-76
2022/03/14 10:57:30;;;;;;;9.60;4.10;;;10.60;99.90;;;;;;4938255;28;20016;-76
2022/03/14 11:00:06;;;;;;;10.80;4.07;;;10.60;99.90;;;;;;4923870;29;20226;-76
2022/03/14 11:02:33;;;;;;;12.10;3.92;;;10.70;99.90;;;;;;4938232;29;20448;-76
2022/03/14 11:05:09;;;;;;;8.63;4.82;;;10.70;99.90;;;;;;4923470;29;20462;-76
2022/03/14 11:07:43;;;;;;;8.35;5.00;;;10.70;99.90;;;;;;4938279;28;20271;-76
2022/03/14 11:10:12;;;;;;;8.43;4.47;;;10.80;99.90;;;;;;4939043;29;20085;-76
2022/03/14 11:12:40;;;;;;;9.85;4.97;;;10.70;99.90;;;;;;4937862;29;20043;-76
2022/03/14 11:15:13;;;;;;;11.07;6.05;;;10.70;99.90;;;;;;4938617;29;20050;-76
2022/03/14 11:17:48;;;;;;;12.63;6.00;;;10.60;99.90;;;;;;4938182;29;20098;-76
2022/03/14 11:20:25;;;;;;;14.77;7.07;;;10.70;99.90;;;;;;4938049;28;20046;-76
2022/03/14 11:22:55;;;;;;;13.40;7.57;;;10.70;99.90;;;;;;4938106;29;20046;-76
2022/03/14 11:25:27;;;;;;;14.82;7.20;;;10.80;99.90;;;;;;4938131;29;20043;-76
2022/03/14 11:28:01;;;;;;;13.85;7.93;;;10.80;99.90;;;;;;4938314;29;20043;-76
2022/03/14 11:30:34;;;;;;;15.18;8.93;;;10.80;99.90;;;;;;4938071;28;20051;-76
2022/03/14 11:33:03;;;;;;;13.18;9.35;;;10.80;99.90;;;;;;4953785;28;20079;-76
2022/03/14 11:35:34;;;;;;;16.80;10.60;;;10.80;99.90;;;;;;4937877;29;20047;-77
2022/03/14 11:38:04;;;;;;;16.58;11.40;;;10.80;99.90;;;;;;4937724;29;20051;-76
2022/03/14 11:40:34;;;;;;;15.18;10.82;;;10.80;99.90;;;;;;4937275;29;20045;-76
2022/03/14 11:43:03;;;;;;;17.00;11.02;;;10.80;99.90;;;;;;4952784;28;20039;-76
2022/03/14 11:45:34;;;;;;;15.52;11.18;;;10.90;99.90;;;;;;4937387;29;20035;-76
2022/03/14 11:48:26;;;;;;;15.80;11.85;;;11.00;99.90;;;;;;4937696;29;20082;-76
2022/03/14 11:51:03;;;;;;;15.27;11.50;;;11.10;99.90;;;;;;4937464;29;20568;-76
2022/03/14 11:53:37;;;;;;;16.85;12.35;;;11.30;99.90;;;;;;4937320;28;20043;-76
2022/03/14 11:56:05;;;;;;;17.38;13.65;;;11.30;99.90;;;;;;4937561;29;20070;-76
2022/03/14 11:59:01;;;;;;;16.40;13.13;;;11.50;99.90;;;;;;4937526;29;20051;-76
2022/03/14 12:01:48;;;;;;;15.68;13.70;;;11.50;99.90;;;;;;4936881;29;20063;-76
2022/03/14 12:04:28;;;;;;;16.63;13.70;;;11.60;99.90;;;;;;4937502;29;20039;-76
2022/03/14 12:07:03;;;;;;;17.30;13.87;;;11.70;99.90;;;;;;4937761;29;20512;-76
2022/03/14 12:09:30;;;;;;;17.95;13.90;;;11.80;99.90;;;;;;4937558;29;20122;-76
2022/03/14 12:12:18;;;;;;;16.50;12.10;;;11.90;99.90;;;;;;4937408;29;20573;-76
2022/03/14 12:14:53;;;;;;;18.40;11.57;;;12.10;99.90;;;;;;4937652;29;20075;-76
2022/03/14 12:17:23;;;;;;;15.50;11.27;;;12.40;99.90;;;;;;4937680;29;20047;-76
2022/03/14 12:19:55;;;;;;;17.23;11.60;;;12.50;99.90;;;;;;4936816;29;20075;-77
2022/03/14 12:22:28;;;;;;;15.88;10.93;;;12.50;99.90;;;;;;4937713;28;20176;-76
2022/03/14 12:25:13;;;;;;;16.63;11.98;;;12.80;99.90;;;;;;4936584;29;20061;-76
2022/03/14 12:27:41;;;;;;;16.30;11.60;;;13.00;99.90;;;;;;4936671;29;20494;-76
2022/03/14 12:30:18;;;;;;;19.45;11.85;;;13.20;99.90;;;;;;4936971;29;20050;-77
2022/03/14 12:32:49;;;;;;;15.13;9.75;;;13.30;99.90;;;;;;4936813;29;20487;-77
2022/03/14 12:35:25;;;;;;;19.85;11.35;;;13.40;99.90;;;;;;4936476;28;20499;-76
2022/03/14 12:38:21;;;;;;;17.58;11.18;;;13.70;99.90;;;;;;4937177;29;20126;-76
2022/03/14 12:40:59;;;;;;;;;;;;;;;;;;;;;
2022/03/14 12:43:39;;;;;;;15.98;9.30;;;14.40;99.90;;;;;;4952077;28;20098;-77
2022/03/14 12:46:07;;;;;;;10.48;8.38;;;14.50;99.90;;;;;;4937083;29;20132;-76
2022/03/14 12:48:51;;;;;;;14.60;9.80;;;14.60;99.90;;;;;;4937183;29;20064;-76
2022/03/14 12:51:38;;;;;;;17.10;9.32;;;14.50;99.90;;;;;;4936697;29;20474;-76
2022/03/14 12:54:10;;;;;;;16.23;8.77;;;14.20;99.90;;;;;;4936320;28;20470;-77
2022/03/14 12:56:48;;;;;;;17.52;10.00;;;14.20;99.90;;;;;;4936479;29;20082;-77
2022/03/14 12:59:17;;;;;;;13.70;9.48;;;14.20;99.90;;;;;;4936855;29;20047;-76
2022/03/14 13:01:49;;;;;;;13.15;8.48;;;14.60;99.90;;;;;;4936689;29;20133;-76
2022/03/14 13:04:24;;;;;;;13.40;9.15;;;14.50;99.90;;;;;;4935762;29;20055;-76
2022/03/14 13:07:02;;;;;;;13.32;8.02;;;14.90;99.90;;;;;;4937107;29;20054;-76
2022/03/14 13:09:40;;;;;;;17.15;9.48;;;15.30;99.90;;;;;;4936281;29;20043;-77
2022/03/14 13:12:24;;;;;;;13.55;8.35;;;15.60;99.90;;;;;;4937247;29;20094;-76